Time;durP1;ratioP1;P1;durP2;ratioP2;P2;SDS_P1;SDS_P2;PMS_P1;PMS_P2;Temp;Humidity;BMP_temperature;BMP_pressure;BME280_temperature;BME280_humidity;BME280_pressure;Samples;Min_cycle;Max_cycle;Signal;HPM_P1;HPM_P2
2022/03/17 00:01:01;;;;;;;26.95;19.30;;;8.60;90.90;;;;;;5052503;28;20202;-64
2022/03/17 00:03:30;;;;;;;23.58;16.42;;;8.60;90.70;;;;;;5056135;28;20247;-64
2022/03/17 00:05:57;;;;;;;27.95;18.02;;;8.60;90.70;;;;;;5071778;28;20601;-64
2022/03/17 00:08:24;;;;;;;24.92;17.58;;;8.60;90.80;;;;;;5068917;28;20558;-64
2022/03/17 00:10:51;;;;;;;27.13;19.38;;;8.60;91.10;;;;;;5052194;28;20244;-65
2022/03/17 00:13:18;;;;;;;24.88;18.48;;;8.60;91.10;;;;;;5067363;28;20197;-63
2022/03/17 00:15:45;;;;;;;28.67;19.17;;;8.50;91.20;;;;;;5072325;28;20190;-64
2022/03/17 00:18:13;;;;;;;27.30;19.65;;;8.60;91.40;;;;;;5057955;28;20225;-63
2022/03/17 00:20:42;;;;;;;25.80;18.85;;;8.60;91.40;;;;;;5052413;28;20195;-64
2022/03/17 00:23:09;;;;;;;25.52;17.98;;;8.60;91.40;;;;;;5064843;28;20199;-63
2022/03/17 00:25:37;;;;;;;27.38;19.42;;;8.60;91.40;;;;;;5070212;28;20189;-66
2022/03/17 00:28:04;;;;;;;24.60;18.38;;;8.60;91.30;;;;;;5052041;28;20222;-63
2022/03/17 00:30:31;;;;;;;25.92;18.35;;;8.60;91.20;;;;;;5052106;28;20198;-64
2022/03/17 00:32:58;;;;;;;27.33;20.27;;;8.70;91.10;;;;;;5071784;28;20642;-64
2022/03/17 00:35:38;;;;;;;26.73;18.48;;;8.70;91.10;;;;;;5071826;28;20197;-64
2022/03/17 00:38:10;;;;;;;29.58;20.75;;;8.70;91.20;;;;;;5032165;28;20187;-63
2022/03/17 00:40:38;;;;;;;28.60;18.08;;;8.60;91.20;;;;;;5031896;28;20268;-64
2022/03/17 00:43:05;;;;;;;30.45;20.73;;;8.60;91.40;;;;;;5071470;28;20213;-64
2022/03/17 00:45:32;;;;;;;27.55;20.27;;;8.60;91.40;;;;;;5060370;28;20538;-64
2022/03/17 00:47:59;;;;;;;24.98;17.85;;;8.60;91.50;;;;;;5051653;28;20221;-64
2022/03/17 00:50:26;;;;;;;24.40;18.40;;;8.60;91.50;;;;;;5061362;28;20231;-65
2022/03/17 00:52:53;;;;;;;29.50;19.63;;;8.60;91.50;;;;;;5067341;28;20198;-65
2022/03/17 00:55:22;;;;;;;24.85;18.02;;;8.60;91.70;;;;;;5052114;28;20222;-64
2022/03/17 00:57:50;;;;;;;22.90;15.98;;;8.50;91.80;;;;;;5063818;28;20197;-67
2022/03/17 01:00:18;;;;;;;25.50;19.13;;;8.50;92.00;;;;;;5071622;28;20286;-64
2022/03/17 01:02:47;;;;;;;25.13;17.20;;;8.50;91.90;;;;;;5060110;28;20268;-64
2022/03/17 01:05:14;;;;;;;28.45;18.85;;;8.40;92.00;;;;;;5051722;28;20691;-63
2022/03/17 01:07:42;;;;;;;26.35;18.48;;;8.40;92.20;;;;;;5061575;28;20209;-63
2022/03/17 01:10:12;;;;;;;25.35;18.30;;;8.40;92.40;;;;;;5071454;28;20198;-65
2022/03/17 01:12:40;;;;;;;21.77;17.55;;;8.40;92.50;;;;;;5061876;28;20191;-64
2022/03/17 01:15:09;;;;;;;26.88;16.55;;;8.40;92.60;;;;;;5051257;28;20191;-66
2022/03/17 01:17:36;;;;;;;24.35;18.05;;;8.30;92.40;;;;;;5059824;28;20561;-64
2022/03/17 01:20:04;;;;;;;25.25;17.30;;;8.30;92.80;;;;;;5075304;28;20670;-64
2022/03/17 01:22:31;;;;;;;26.70;17.50;;;8.30;92.80;;;;;;5067548;28;20178;-64
2022/03/17 01:24:58;;;;;;;27.83;17.92;;;8.40;92.90;;;;;;5055342;28;20726;-63
2022/03/17 01:27:25;;;;;;;25.55;17.60;;;8.40;92.70;;;;;;5073090;28;20557;-64
2022/03/17 01:29:55;;;;;;;27.23;18.27;;;8.40;92.80;;;;;;5058479;28;20187;-64
2022/03/17 01:32:25;;;;;;;26.55;19.75;;;8.30;92.70;;;;;;5054899;28;20642;-66
2022/03/17 01:34:52;;;;;;;25.30;17.63;;;8.40;93.00;;;;;;5070143;28;20711;-64
2022/03/17 01:37:19;;;;;;;27.88;18.83;;;8.40;93.00;;;;;;5074931;28;20190;-64
2022/03/17 01:39:46;;;;;;;26.13;18.80;;;8.40;92.70;;;;;;5060251;28;20196;-63
2022/03/17 01:42:14;;;;;;;28.55;19.65;;;8.40;92.60;;;;;;5054947;28;20194;-64
2022/03/17 01:44:41;;;;;;;31.05;20.70;;;8.40;92.60;;;;;;5055904;28;20190;-64
2022/03/17 01:47:28;;;;;;;30.50;21.08;;;8.40;92.60;;;;;;5054855;28;20225;-64
2022/03/17 01:49:57;;;;;;;26.15;18.75;;;8.40;92.80;;;;;;5069119;28;20189;-64
2022/03/17 01:52:24;;;;;;;28.27;18.85;;;8.40;92.70;;;;;;5074634;28;20339;-64
2022/03/17 01:54:53;;;;;;;25.20;18.05;;;8.40;92.50;;;;;;5060681;28;20244;-65
2022/03/17 01:57:21;;;;;;;27.70;19.08;;;8.40;92.40;;;;;;5054511;28;20190;-64
2022/03/17 01:59:49;;;;;;;27.88;18.10;;;8.40;92.50;;;;;;5066607;28;20182;-64
2022/03/17 02:02:18;;;;;;;25.08;17.73;;;8.40;92.50;;;;;;5074652;28;20190;-63
2022/03/17 02:04:47;;;;;;;27.73;18.10;;;8.30;92.50;;;;;;5062612;28;20274;-64
2022/03/17 02:07:15;;;;;;;25.67;18.52;;;8.30;92.70;;;;;;5056706;28;20210;-63
2022/03/17 02:09:45;;;;;;;32.25;19.15;;;8.30;92.80;;;;;;5071730;28;20183;-64
2022/03/17 02:15:00;;;;;;;26.15;19.77;;;8.30;93.00;;;;;;5070680;28;20658;-63
2022/03/17 02:17:30;;;;;;;26.50;17.88;;;8.20;93.10;;;;;;5054070;28;20205;-63
2022/03/17 02:19:58;;;;;;;29.20;19.60;;;8.20;93.00;;;;;;5054016;28;20186;-64
2022/03/17 02:22:26;;;;;;;26.48;19.45;;;8.20;92.80;;;;;;5054136;28;20194;-65
2022/03/17 02:27:45;;;;;;;29.10;19.00;;;8.20;93.50;;;;;;5066290;28;20267;-63
2022/03/17 02:30:14;;;;;;;34.70;18.88;;;8.20;93.30;;;;;;5073054;28;20200;-63
2022/03/17 02:32:41;;;;;;;27.30;19.15;;;8.10;93.50;;;;;;5061111;28;20750;-64
2022/03/17 02:35:11;;;;;;;30.42;18.67;;;8.10;93.50;;;;;;5053900;28;20202;-64
2022/03/17 02:37:38;;;;;;;29.40;20.50;;;8.10;93.80;;;;;;5064629;28;20182;-64
2022/03/17 02:40:09;;;;;;;26.80;19.17;;;8.10;93.70;;;;;;5059245;28;20221;-63
2022/03/17 02:42:38;;;;;;;27.88;18.60;;;8.10;94.00;;;;;;5054781;28;20191;-64
2022/03/17 02:45:07;;;;;;;29.42;18.75;;;8.00;94.10;;;;;;5053794;28;20192;-64
2022/03/17 02:47:34;;;;;;;27.15;17.88;;;8.10;93.90;;;;;;5071477;28;20209;-64
2022/03/17 02:50:01;;;;;;;27.48;19.05;;;8.10;93.70;;;;;;5071308;28;20186;-64
2022/03/17 02:52:29;;;;;;;28.75;19.25;;;8.10;93.80;;;;;;5053544;28;20191;-64
2022/03/17 02:54:57;;;;;;;25.85;16.70;;;8.10;93.80;;;;;;5053469;28;20195;-69
2022/03/17 02:57:25;;;;;;;24.15;16.27;;;8.00;93.90;;;;;;5073309;28;20675;-64
2022/03/17 02:59:53;;;;;;;29.95;18.90;;;8.00;94.00;;;;;;5073458;28;20194;-64
2022/03/17 03:02:20;;;;;;;27.92;18.20;;;8.00;93.90;;;;;;5072263;28;20632;-64
2022/03/17 03:04:47;;;;;;;29.70;19.63;;;8.00;94.00;;;;;;5073105;28;20198;-64
2022/03/17 03:07:14;;;;;;;24.30;17.42;;;7.90;94.00;;;;;;5054065;28;20218;-63
2022/03/17 03:09:42;;;;;;;22.92;16.63;;;8.00;94.00;;;;;;5062206;28;20553;-64
2022/03/17 03:12:10;;;;;;;25.23;18.33;;;8.00;94.10;;;;;;5073073;28;20239;-64
2022/03/17 03:14:38;;;;;;;24.02;17.20;;;7.90;94.00;;;;;;5064567;28;20959;-64
2022/03/17 03:17:06;;;;;;;27.23;18.13;;;7.90;94.10;;;;;;5053024;28;20203;-64
2022/03/17 03:19:33;;;;;;;23.73;16.95;;;7.90;94.10;;;;;;5059388;28;20186;-64
2022/03/17 03:22:01;;;;;;;26.30;18.55;;;7.90;94.20;;;;;;5073000;28;20186;-64
2022/03/17 03:24:28;;;;;;;24.73;16.83;;;8.00;94.20;;;;;;5070535;28;20185;-64
2022/03/17 03:26:55;;;;;;;25.65;17.98;;;8.00;94.10;;;;;;5052727;28;20592;-64
2022/03/17 03:29:23;;;;;;;26.63;18.23;;;8.00;94.10;;;;;;5053040;28;20198;-64
2022/03/17 03:31:52;;;;;;;27.13;18.00;;;8.00;94.00;;;;;;5053083;28;20214;-64
2022/03/17 03:34:19;;;;;;;24.65;17.13;;;8.00;94.10;;;;;;5052730;28;20241;-64
2022/03/17 03:39:31;;;;;;;22.67;16.20;;;8.00;94.10;;;;;;5072872;28;20239;-64
2022/03/17 03:41:58;;;;;;;22.50;16.05;;;8.00;94.20;;;;;;5068678;28;20190;-64
2022/03/17 03:44:25;;;;;;;29.02;18.30;;;7.90;94.10;;;;;;5052423;28;20194;-64
2022/03/17 03:46:54;;;;;;;23.88;17.63;;;7.90;94.30;;;;;;5054227;28;20263;-64
2022/03/17 03:49:21;;;;;;;24.42;16.95;;;7.90;94.30;;;;;;5072638;28;20193;-64
2022/03/17 03:51:48;;;;;;;26.55;16.60;;;7.90;94.20;;;;;;5058425;28;20216;-63
2022/03/17 03:54:17;;;;;;;22.00;16.20;;;7.90;94.20;;;;;;5052622;28;20657;-64
2022/03/17 03:56:46;;;;;;;24.05;16.23;;;7.80;94.50;;;;;;5064557;28;20281;-63
2022/03/17 03:59:19;;;;;;;20.23;15.23;;;7.90;94.70;;;;;;5072582;28;20582;-63
2022/03/17 04:01:46;;;;;;;19.65;13.93;;;7.90;94.40;;;;;;5059927;28;20190;-64
2022/03/17 04:04:17;;;;;;;22.17;15.02;;;7.90;94.10;;;;;;5052853;28;20198;-64
2022/03/17 04:06:46;;;;;;;18.92;13.32;;;7.90;93.90;;;;;;5070398;28;20186;-64
2022/03/17 04:09:13;;;;;;;17.75;13.00;;;7.90;94.10;;;;;;5072666;28;20640;-64
2022/03/17 04:11:41;;;;;;;19.45;14.02;;;7.90;94.00;;;;;;5055639;28;20201;-63
2022/03/17 04:14:08;;;;;;;23.42;13.88;;;7.80;94.10;;;;;;5054466;28;20197;-64
2022/03/17 04:16:35;;;;;;;18.45;13.05;;;7.80;94.10;;;;;;5072700;28;20185;-64
2022/03/17 04:19:02;;;;;;;19.10;13.13;;;7.80;94.20;;;;;;5071251;28;20189;-63
2022/03/17 04:21:32;;;;;;;18.35;13.88;;;7.80;94.20;;;;;;5052524;28;20653;-64
2022/03/17 04:23:59;;;;;;;20.58;14.43;;;7.80;94.40;;;;;;5051928;28;20194;-69
2022/03/17 04:26:27;;;;;;;20.00;15.13;;;7.80;94.30;;;;;;5032324;28;20191;-64
2022/03/17 04:28:55;;;;;;;24.40;14.55;;;7.80;94.30;;;;;;5032380;28;20580;-64
2022/03/17 04:31:22;;;;;;;23.63;15.95;;;7.80;94.40;;;;;;5070632;28;20592;-63
2022/03/17 04:33:50;;;;;;;21.75;14.35;;;7.80;94.30;;;;;;5072215;28;20228;-64
2022/03/17 04:36:18;;;;;;;22.73;16.80;;;7.80;94.10;;;;;;5053707;28;20194;-65
2022/03/17 04:38:46;;;;;;;24.95;17.08;;;7.80;94.50;;;;;;5052334;28;20259;-65
2022/03/17 04:41:14;;;;;;;23.58;16.77;;;7.80;94.80;;;;;;5068816;28;20193;-64
2022/03/17 04:43:41;;;;;;;21.20;16.05;;;7.80;94.20;;;;;;5057347;28;20236;-64
2022/03/17 04:46:08;;;;;;;24.25;18.23;;;7.80;94.20;;;;;;5052121;28;20195;-64
2022/03/17 04:48:36;;;;;;;21.92;15.23;;;7.80;94.40;;;;;;5064395;28;20213;-64
2022/03/17 04:51:04;;;;;;;21.00;14.07;;;7.80;94.30;;;;;;5072174;28;20668;-64
2022/03/17 04:53:32;;;;;;;21.65;13.23;;;7.80;94.00;;;;;;5062078;28;20186;-64
2022/03/17 04:56:02;;;;;;;19.90;14.68;;;7.80;94.00;;;;;;5056113;28;20194;-63
2022/03/17 04:58:31;;;;;;;20.55;13.63;;;7.80;94.30;;;;;;5067672;28;20208;-64
2022/03/17 05:00:58;;;;;;;19.83;13.65;;;7.70;94.10;;;;;;5075739;28;20186;-64
2022/03/17 05:03:26;;;;;;;19.67;14.82;;;7.60;94.20;;;;;;5064715;28;20190;-64
2022/03/17 05:05:53;;;;;;;27.48;15.93;;;7.60;94.50;;;;;;5055817;28;20193;-65
2022/03/17 05:08:21;;;;;;;23.92;16.98;;;7.60;94.60;;;;;;5065485;28;20217;-64
2022/03/17 05:10:48;;;;;;;25.50;14.85;;;7.70;94.60;;;;;;5075967;28;20563;-64
2022/03/17 05:13:18;;;;;;;23.25;15.35;;;7.70;94.60;;;;;;5072293;28;20196;-64
2022/03/17 05:15:46;;;;;;;23.52;15.40;;;7.80;94.70;;;;;;5075724;28;20660;-65
2022/03/17 05:18:13;;;;;;;24.55;16.38;;;7.80;94.20;;;;;;5064724;28;20193;-64
2022/03/17 05:20:41;;;;;;;23.70;16.00;;;7.80;94.40;;;;;;5055731;28;20187;-64
2022/03/17 05:23:10;;;;;;;21.75;14.15;;;7.80;94.10;;;;;;5064919;28;20186;-64
2022/03/17 05:25:38;;;;;;;24.77;16.60;;;7.80;94.00;;;;;;5075002;28;20701;-64
2022/03/17 05:28:05;;;;;;;22.48;14.40;;;7.80;94.20;;;;;;5066564;28;20209;-64
2022/03/17 05:30:57;;;;;;;23.73;15.80;;;7.90;94.40;;;;;;5055497;28;20563;-64
2022/03/17 05:33:29;;;;;;;19.83;14.48;;;7.90;94.00;;;;;;5065586;28;20225;-64
2022/03/17 05:36:02;;;;;;;22.20;15.57;;;8.00;94.20;;;;;;5075443;28;20220;-64
2022/03/17 05:38:29;;;;;;;26.98;17.90;;;8.00;94.20;;;;;;5035322;28;20664;-64
2022/03/17 05:40:56;;;;;;;22.20;15.35;;;8.00;94.10;;;;;;5035282;28;20195;-66
2022/03/17 05:43:24;;;;;;;22.70;15.30;;;8.00;94.00;;;;;;5073394;28;20189;-64
2022/03/17 05:45:52;;;;;;;27.30;15.25;;;8.00;93.90;;;;;;5075203;28;20189;-64
2022/03/17 05:48:19;;;;;;;21.98;15.90;;;8.00;93.90;;;;;;5056854;28;20214;-64
2022/03/17 05:50:46;;;;;;;22.85;15.10;;;8.10;94.10;;;;;;5050616;28;20499;-64
2022/03/17 05:53:13;;;;;;;24.67;16.95;;;8.10;94.00;;;;;;5053856;28;20195;-65
2022/03/17 05:55:40;;;;;;;23.25;15.43;;;8.10;93.70;;;;;;5052662;28;20190;-65
2022/03/17 05:58:08;;;;;;;25.52;15.80;;;8.00;93.80;;;;;;5056575;28;20186;-65
2022/03/17 06:00:36;;;;;;;23.67;15.25;;;8.00;93.70;;;;;;5052946;28;20195;-63
2022/03/17 06:03:05;;;;;;;28.55;17.15;;;8.00;93.80;;;;;;5053035;28;20195;-63
2022/03/17 06:05:32;;;;;;;22.70;16.25;;;8.00;93.90;;;;;;5053008;28;20194;-63
2022/03/17 06:08:01;;;;;;;18.25;14.40;;;8.10;94.10;;;;;;5052831;28;20544;-64
2022/03/17 06:10:32;;;;;;;24.88;16.27;;;8.10;94.00;;;;;;5052400;28;20190;-65
2022/03/17 06:13:00;;;;;;;22.75;16.35;;;8.20;93.90;;;;;;5053124;28;20190;-64
2022/03/17 06:15:28;;;;;;;25.70;15.90;;;8.20;93.40;;;;;;5052748;28;20190;-64
2022/03/17 06:17:56;;;;;;;33.33;18.02;;;8.20;93.60;;;;;;5052560;28;20202;-64
2022/03/17 06:20:26;;;;;;;26.30;16.75;;;8.20;93.70;;;;;;5052615;28;20191;-63
2022/03/17 06:22:55;;;;;;;29.95;19.27;;;8.20;93.80;;;;;;5052787;28;20568;-64
2022/03/17 06:25:24;;;;;;;32.85;20.23;;;8.30;93.80;;;;;;5055679;28;20194;-65
2022/03/17 06:27:51;;;;;;;28.05;17.40;;;8.30;93.80;;;;;;5046178;28;20186;-64
2022/03/17 06:30:20;;;;;;;33.03;18.77;;;8.30;93.50;;;;;;5050949;28;20194;-64
2022/03/17 06:32:50;;;;;;;30.40;18.98;;;8.40;93.60;;;;;;5051213;28;20218;-64
2022/03/17 06:35:19;;;;;;;27.70;18.67;;;8.40;93.70;;;;;;5053202;28;20190;-66
2022/03/17 06:37:49;;;;;;;29.17;18.90;;;8.40;93.40;;;;;;5050083;28;20186;-64
2022/03/17 06:40:17;;;;;;;28.23;19.20;;;8.40;93.30;;;;;;5052924;28;20225;-64
2022/03/17 06:42:45;;;;;;;26.65;16.58;;;8.40;93.40;;;;;;5052508;28;20241;-64
2022/03/17 06:45:13;;;;;;;30.90;19.30;;;8.40;93.40;;;;;;5051643;28;20195;-64
2022/03/17 06:47:40;;;;;;;30.15;17.60;;;8.40;93.60;;;;;;5050681;28;20240;-63
2022/03/17 06:50:09;;;;;;;30.15;18.15;;;8.40;93.50;;;;;;5052702;28;20222;-65
2022/03/17 06:52:36;;;;;;;31.70;18.98;;;8.50;93.50;;;;;;5052562;28;20220;-64
2022/03/17 06:55:05;;;;;;;34.30;19.48;;;8.50;93.50;;;;;;5052476;28;20191;-64
2022/03/17 06:57:32;;;;;;;36.80;19.90;;;8.50;93.50;;;;;;5052400;28;20229;-64
2022/03/17 06:59:59;;;;;;;36.53;22.67;;;8.50;93.60;;;;;;5052109;28;20657;-64
2022/03/17 07:02:26;;;;;;;29.85;18.33;;;8.50;93.50;;;;;;5053176;28;20217;-64
2022/03/17 07:04:53;;;;;;;26.90;18.55;;;8.50;93.20;;;;;;5054896;28;20198;-63
2022/03/17 07:07:20;;;;;;;38.97;20.70;;;8.50;93.10;;;;;;5057520;28;20186;-64
2022/03/17 07:09:47;;;;;;;32.15;19.58;;;8.50;93.30;;;;;;5050444;28;20550;-65
2022/03/17 07:12:15;;;;;;;33.05;20.80;;;8.50;93.30;;;;;;5051733;28;20218;-64
2022/03/17 07:14:42;;;;;;;34.72;21.52;;;8.50;93.40;;;;;;5051826;28;20198;-63
2022/03/17 07:17:10;;;;;;;31.83;20.92;;;8.50;93.40;;;;;;5051118;28;20210;-64
2022/03/17 07:19:37;;;;;;;42.65;21.95;;;8.60;93.50;;;;;;5050709;28;20273;-63
2022/03/17 07:22:05;;;;;;;36.38;21.75;;;8.60;93.40;;;;;;5051601;28;20186;-64
2022/03/17 07:24:32;;;;;;;33.45;21.42;;;8.60;93.20;;;;;;5051694;28;20197;-64
2022/03/17 07:26:59;;;;;;;29.50;20.23;;;8.70;93.20;;;;;;5051287;28;20549;-63
2022/03/17 07:29:28;;;;;;;29.35;18.55;;;8.70;93.30;;;;;;5054423;28;20696;-64
2022/03/17 07:31:56;;;;;;;27.70;18.52;;;8.70;93.20;;;;;;5052441;28;20190;-64
2022/03/17 07:34:24;;;;;;;33.85;20.13;;;8.80;93.30;;;;;;5049277;28;20211;-65
2022/03/17 07:36:51;;;;;;;34.22;21.65;;;8.80;93.40;;;;;;5050814;28;20209;-65
2022/03/17 07:39:19;;;;;;;29.95;18.38;;;8.80;93.30;;;;;;5051531;28;20630;-64
2022/03/17 07:41:46;;;;;;;31.20;19.60;;;8.80;93.00;;;;;;5051249;28;20202;-66
2022/03/17 07:44:13;;;;;;;28.55;19.02;;;8.80;92.80;;;;;;5051124;28;20186;-64
2022/03/17 07:46:42;;;;;;;33.88;19.70;;;8.90;93.00;;;;;;5050596;28;20194;-64
2022/03/17 07:49:09;;;;;;;35.65;20.80;;;8.90;93.00;;;;;;5051322;28;20214;-64
2022/03/17 07:51:39;;;;;;;32.50;21.60;;;8.90;93.00;;;;;;5050948;28;20201;-64
2022/03/17 07:54:07;;;;;;;33.42;19.88;;;8.90;93.00;;;;;;5050669;28;20688;-65
2022/03/17 07:56:34;;;;;;;31.13;20.30;;;9.00;93.00;;;;;;5049897;28;20191;-64
2022/03/17 07:59:03;;;;;;;32.78;20.42;;;9.00;92.90;;;;;;5050178;28;20198;-63
2022/03/17 08:01:30;;;;;;;33.13;21.75;;;9.10;93.00;;;;;;5050725;28;20534;-64
2022/03/17 08:03:58;;;;;;;26.92;19.00;;;9.20;92.80;;;;;;5050501;28;20183;-64
2022/03/17 08:06:26;;;;;;;25.92;19.25;;;9.20;92.70;;;;;;5050642;28;20225;-64
2022/03/17 08:08:53;;;;;;;32.55;20.90;;;9.30;92.60;;;;;;5050694;28;20764;-64
2022/03/17 08:11:23;;;;;;;37.53;21.05;;;9.30;92.40;;;;;;5052935;28;20187;-65
2022/03/17 08:13:50;;;;;;;32.88;20.67;;;9.40;92.10;;;;;;5046965;28;20198;-64
2022/03/17 08:16:18;;;;;;;32.90;19.70;;;9.40;92.10;;;;;;5050857;28;20198;-63
2022/03/17 08:18:45;;;;;;;37.35;21.08;;;9.40;91.90;;;;;;5050568;28;20645;-66
2022/03/17 08:21:14;;;;;;;32.35;19.58;;;9.40;91.80;;;;;;5050143;28;20243;-64
2022/03/17 08:23:41;;;;;;;32.40;21.10;;;9.40;91.90;;;;;;5050612;28;20197;-63
2022/03/17 08:26:08;;;;;;;34.95;20.25;;;9.40;91.90;;;;;;5050348;28;20637;-64
2022/03/17 08:28:35;;;;;;;31.20;19.67;;;9.40;91.60;;;;;;5053530;28;20240;-64
2022/03/17 08:31:02;;;;;;;33.95;19.80;;;9.50;91.60;;;;;;5054445;28;20201;-64
2022/03/17 08:33:29;;;;;;;33.70;20.23;;;9.50;91.60;;;;;;5054951;28;20249;-64
2022/03/17 08:35:57;;;;;;;35.03;19.80;;;9.50;91.50;;;;;;5054090;28;20198;-64
2022/03/17 08:38:25;;;;;;;32.88;20.95;;;9.50;90.90;;;;;;5054056;28;20633;-66
2022/03/17 08:40:52;;;;;;;35.55;20.70;;;9.50;90.80;;;;;;5054209;28;20194;-64
2022/03/17 08:43:19;;;;;;;27.60;19.33;;;9.50;90.90;;;;;;5054805;28;20195;-64
2022/03/17 08:51:15;;;;;;;32.33;19.73;;;9.50;91.20;;;;;;5054891;28;20239;-64
2022/03/17 08:53:43;;;;;;;30.77;19.23;;;9.50;90.90;;;;;;5054342;28;20191;-64
2022/03/17 08:56:10;;;;;;;38.05;18.52;;;9.70;91.30;;;;;;5054803;28;20183;-64
2022/03/17 08:58:38;;;;;;;32.35;20.60;;;9.70;90.80;;;;;;5054022;28;20186;-64
2022/03/17 09:01:05;;;;;;;32.80;17.98;;;9.80;89.90;;;;;;5053954;28;20927;-64
2022/03/17 09:03:32;;;;;;;28.92;17.00;;;9.80;89.30;;;;;;5054202;28;20247;-64
2022/03/17 09:06:01;;;;;;;29.00;18.50;;;9.80;88.90;;;;;;5054460;28;20269;-64
2022/03/17 09:08:29;;;;;;;30.38;18.92;;;9.80;89.60;;;;;;5053853;28;20690;-64
2022/03/17 09:10:58;;;;;;;31.23;19.52;;;9.80;90.00;;;;;;5054079;28;20194;-64
2022/03/17 09:13:26;;;;;;;32.33;20.15;;;9.80;90.40;;;;;;5053931;28;20240;-64
2022/03/17 09:15:54;;;;;;;30.65;19.30;;;9.90;90.40;;;;;;5053817;28;20214;-64
2022/03/17 09:18:22;;;;;;;27.40;17.35;;;10.00;89.20;;;;;;5054160;28;20186;-64
2022/03/17 09:20:50;;;;;;;29.23;18.05;;;10.00;89.10;;;;;;5049207;28;20198;-64
2022/03/17 09:23:17;;;;;;;32.13;18.92;;;10.10;89.20;;;;;;5055078;28;20194;-64
2022/03/17 09:25:44;;;;;;;34.85;21.10;;;10.30;89.50;;;;;;5056577;28;20205;-64
2022/03/17 09:28:13;;;;;;;30.02;20.67;;;10.30;89.00;;;;;;5055280;28;20193;-67
2022/03/17 09:30:41;;;;;;;32.22;18.52;;;10.40;87.90;;;;;;5060545;28;20297;-65
2022/03/17 09:33:09;;;;;;;34.00;21.70;;;10.40;86.80;;;;;;5054693;28;20234;-65
2022/03/17 09:35:36;;;;;;;25.90;17.75;;;10.50;87.20;;;;;;5055481;28;20209;-63
2022/03/17 09:38:09;;;;;;;31.92;19.00;;;10.60;87.20;;;;;;5059346;28;20213;-64
2022/03/17 09:40:38;;;;;;;29.38;17.17;;;10.60;86.80;;;;;;5052860;28;20187;-64
2022/03/17 09:43:21;;;;;;;30.60;18.73;;;10.60;85.60;;;;;;5058909;28;20202;-64
2022/03/17 09:45:52;;;;;;;26.35;17.70;;;10.60;85.50;;;;;;5056778;28;20205;-64
2022/03/17 09:48:22;;;;;;;25.13;17.42;;;10.70;84.60;;;;;;5054673;28;20218;-64
2022/03/17 09:50:55;;;;;;;25.27;16.85;;;10.70;84.10;;;;;;5057534;28;20684;-64
2022/03/17 09:53:23;;;;;;;26.88;17.77;;;10.80;84.80;;;;;;5054206;28;20198;-64
2022/03/17 09:55:51;;;;;;;24.35;16.58;;;10.90;85.10;;;;;;5053440;28;20218;-64
2022/03/17 09:58:19;;;;;;;27.20;17.98;;;11.00;84.40;;;;;;5051138;28;20209;-65
2022/03/17 10:00:49;;;;;;;27.35;18.10;;;11.10;84.20;;;;;;5051068;28;20216;-65
2022/03/17 10:03:18;;;;;;;26.02;17.98;;;11.20;84.20;;;;;;5056832;28;20181;-64
2022/03/17 10:05:47;;;;;;;29.50;16.50;;;11.40;82.60;;;;;;5054802;28;20196;-64
2022/03/17 10:08:16;;;;;;;23.35;14.32;;;11.50;82.80;;;;;;5052658;28;20194;-64
2022/03/17 10:10:44;;;;;;;21.95;16.05;;;11.60;82.70;;;;;;5054107;28;20249;-64
2022/03/17 10:13:14;;;;;;;24.48;16.48;;;11.80;81.00;;;;;;5054407;28;20618;-64
2022/03/17 10:15:41;;;;;;;20.58;15.02;;;12.00;81.50;;;;;;5056165;28;20193;-64
2022/03/17 10:18:25;;;;;;;20.77;14.02;;;12.20;81.10;;;;;;5051353;28;20194;-65
2022/03/17 10:21:10;;;;;;;22.45;13.80;;;12.40;79.80;;;;;;5051769;28;20200;-64
2022/03/17 10:23:45;;;;;;;18.48;14.55;;;12.60;78.10;;;;;;5050313;28;20706;-64
2022/03/17 10:26:13;;;;;;;18.73;13.23;;;12.70;74.80;;;;;;5052439;28;20248;-64
2022/03/17 10:28:40;;;;;;;20.95;15.30;;;12.70;72.80;;;;;;5051832;28;20191;-64
2022/03/17 10:31:08;;;;;;;23.25;15.32;;;12.70;72.70;;;;;;5056140;28;20220;-65
2022/03/17 10:33:36;;;;;;;21.20;15.40;;;12.60;73.30;;;;;;5051638;28;20226;-65
2022/03/17 10:36:21;;;;;;;18.65;14.55;;;12.50;73.20;;;;;;5053978;28;20187;-64
2022/03/17 10:38:50;;;;;;;21.05;14.45;;;12.50;73.30;;;;;;5050774;28;20230;-65
2022/03/17 10:41:18;;;;;;;22.88;15.80;;;12.40;72.60;;;;;;5051213;28;20182;-64
2022/03/17 10:43:45;;;;;;;24.60;15.13;;;12.30;72.80;;;;;;5051115;28;20221;-64
2022/03/17 10:46:16;;;;;;;26.23;15.93;;;12.20;73.00;;;;;;5050848;28;20641;-65
2022/03/17 10:48:58;;;;;;;22.92;15.43;;;12.20;73.50;;;;;;5049185;28;20198;-64
2022/03/17 10:51:33;;;;;;;23.15;17.75;;;12.20;74.30;;;;;;5049108;28;20214;-66
2022/03/17 10:54:08;;;;;;;17.80;15.02;;;12.20;73.20;;;;;;5050305;28;20248;-63
2022/03/17 10:56:37;;;;;;;18.48;15.07;;;12.10;73.30;;;;;;5056831;28;20598;-64
2022/03/17 10:59:05;;;;;;;19.70;13.50;;;12.10;73.70;;;;;;5053769;28;20194;-64
2022/03/17 11:01:42;;;;;;;21.13;14.50;;;12.10;75.00;;;;;;5054086;28;21674;-64
2022/03/17 11:04:11;;;;;;;23.85;15.43;;;12.10;74.40;;;;;;5054285;28;20699;-64
2022/03/17 11:06:40;;;;;;;18.13;14.45;;;12.10;75.80;;;;;;5054448;28;20285;-64
2022/03/17 11:09:09;;;;;;;18.55;14.75;;;12.10;74.40;;;;;;5050836;28;20675;-66
2022/03/17 11:11:37;;;;;;;18.35;14.38;;;12.10;74.50;;;;;;5056307;28;20591;-64
2022/03/17 11:14:06;;;;;;;22.35;14.90;;;12.10;74.30;;;;;;5059587;28;20316;-68
2022/03/17 11:16:38;;;;;;;25.42;15.18;;;12.10;74.10;;;;;;5051749;28;20225;-64
2022/03/17 11:19:12;;;;;;;22.67;15.90;;;12.10;74.30;;;;;;5056223;28;20226;-65
2022/03/17 11:21:48;;;;;;;19.88;16.27;;;12.10;74.70;;;;;;5057056;28;20248;-64
2022/03/17 11:24:20;;;;;;;22.25;13.05;;;12.10;74.30;;;;;;5052633;28;20197;-64
2022/03/17 11:26:47;;;;;;;19.30;14.27;;;12.00;74.60;;;;;;5051421;28;20296;-65
2022/03/17 11:29:17;;;;;;;18.45;14.90;;;12.00;75.00;;;;;;5053960;28;20211;-63
2022/03/17 11:31:52;;;;;;;21.77;16.10;;;12.10;74.70;;;;;;5052693;28;20644;-65
2022/03/17 11:34:48;;;;;;;19.60;13.93;;;12.00;74.90;;;;;;5053494;28;20224;-64
2022/03/17 11:37:43;;;;;;;19.65;15.15;;;12.10;75.10;;;;;;5057684;28;20530;-64
2022/03/17 11:40:13;;;;;;;21.48;15.00;;;12.10;75.40;;;;;;5050298;28;20206;-65
2022/03/17 11:42:44;;;;;;;20.95;16.65;;;12.10;75.40;;;;;;5050590;28;20588;-64
2022/03/17 11:45:37;;;;;;;19.17;15.43;;;12.10;75.20;;;;;;5052054;28;20695;-64
2022/03/17 11:48:22;;;;;;;22.90;15.80;;;12.00;74.70;;;;;;5047254;28;20194;-64
2022/03/17 11:50:52;;;;;;;22.75;16.75;;;12.00;75.40;;;;;;5050378;28;20226;-65
2022/03/17 11:53:24;;;;;;;20.90;15.68;;;12.00;75.20;;;;;;5051135;28;20190;-65
2022/03/17 11:55:53;;;;;;;21.95;15.10;;;12.00;75.20;;;;;;5051135;28;20198;-64
2022/03/17 11:58:32;;;;;;;22.45;17.67;;;12.00;75.30;;;;;;5050363;28;20221;-65
2022/03/17 12:01:05;;;;;;;30.08;16.30;;;11.90;76.10;;;;;;5051020;28;20197;-64
2022/03/17 12:03:33;;;;;;;23.08;17.15;;;11.90;75.50;;;;;;5050815;28;20191;-64
2022/03/17 12:06:26;;;;;;;23.23;17.92;;;11.90;75.40;;;;;;5051236;28;20186;-65
2022/03/17 12:08:59;;;;;;;25.75;16.83;;;11.90;76.30;;;;;;5046357;28;20510;-64
2022/03/17 12:11:27;;;;;;;22.45;17.50;;;11.80;75.60;;;;;;5053007;28;20213;-65
2022/03/17 12:14:18;;;;;;;27.30;18.40;;;11.80;75.80;;;;;;5050425;28;20256;-64
2022/03/17 12:16:47;;;;;;;21.13;17.05;;;11.70;75.90;;;;;;5053362;28;20202;-64
2022/03/17 12:19:35;;;;;;;27.77;17.40;;;11.70;77.30;;;;;;5050537;28;20295;-64
2022/03/17 12:22:20;;;;;;;21.33;16.73;;;11.70;77.20;;;;;;5050751;28;20600;-64
2022/03/17 12:24:54;;;;;;;23.40;18.85;;;11.70;77.30;;;;;;5050567;28;20202;-66
2022/03/17 12:27:29;;;;;;;25.55;18.10;;;11.80;77.30;;;;;;5046597;28;20649;-70
2022/03/17 12:29:58;;;;;;;26.98;18.85;;;11.80;76.70;;;;;;5056295;28;20211;-65
2022/03/17 12:32:27;;;;;;;28.08;17.83;;;11.80;76.50;;;;;;5052994;28;20182;-64
2022/03/17 12:34:56;;;;;;;23.10;16.58;;;11.80;76.30;;;;;;5052058;28;20656;-65
2022/03/17 12:37:26;;;;;;;26.92;18.55;;;11.80;76.40;;;;;;5049468;28;20232;-66
2022/03/17 12:39:56;;;;;;;26.10;18.70;;;11.80;76.10;;;;;;5046024;28;20244;-65
2022/03/17 12:42:24;;;;;;;27.42;18.98;;;11.80;76.30;;;;;;5049750;28;20198;-64
2022/03/17 12:44:57;;;;;;;24.60;18.35;;;11.90;77.30;;;;;;5046864;28;20193;-67
2022/03/17 12:47:27;;;;;;;26.67;20.75;;;11.90;77.20;;;;;;5046126;28;20537;-64
2022/03/17 12:49:55;;;;;;;26.30;17.70;;;12.00;76.40;;;;;;5052828;28;20183;-64
2022/03/17 12:52:24;;;;;;;24.30;19.00;;;12.00;76.30;;;;;;5052328;28;20205;-65
2022/03/17 12:54:54;;;;;;;23.48;19.85;;;12.00;76.40;;;;;;5050820;28;20340;-64
2022/03/17 12:57:23;;;;;;;28.02;19.65;;;11.90;75.50;;;;;;5050094;28;20194;-65